createdAt,value
2022-12-06T00:02:15.967Z,109.10
2022-12-06T00:04:44.570Z,119.57
2022-12-06T00:07:13.302Z,110.53
2022-12-06T00:09:41.788Z,125.67
2022-12-06T00:12:10.089Z,130.70
2022-12-06T00:14:38.572Z,127.27
2022-12-06T00:17:06.809Z,139.50
2022-12-06T00:19:36.364Z,131.63
2022-12-06T00:22:04.582Z,134.53
2022-12-06T00:24:32.732Z,127.30
2022-12-06T00:27:00.893Z,146.50
2022-12-06T00:29:29.008Z,130.70
2022-12-06T00:31:57.229Z,132.60
2022-12-06T00:34:25.869Z,122.00
2022-12-06T00:36:55.714Z,124.10
2022-12-06T00:39:23.843Z,132.63
2022-12-06T00:41:51.991Z,135.97
2022-12-06T00:44:20.717Z,130.53
2022-12-06T00:46:48.855Z,118.93
2022-12-06T00:49:17.255Z,122.47
2022-12-06T00:51:45.669Z,127.23
2022-12-06T00:54:16.248Z,131.87
2022-12-06T00:56:44.425Z,134.20
2022-12-06T00:59:12.681Z,133.90
2022-12-06T01:01:41.115Z,141.50
2022-12-06T01:04:09.668Z,122.33
2022-12-06T01:06:38.317Z,146.17
2022-12-06T01:09:08.140Z,138.53
2022-12-06T01:11:38.782Z,145.57
2022-12-06T01:14:07.012Z,135.60
2022-12-06T01:16:35.567Z,136.83
2022-12-06T01:19:04.915Z,151.53
2022-12-06T01:21:33.071Z,143.47
2022-12-06T01:24:01.555Z,128.53
2022-12-06T01:26:30.498Z,141.33
2022-12-06T01:29:00.304Z,143.17
2022-12-06T01:31:35.383Z,160.63
2022-12-06T01:34:05.563Z,147.73
2022-12-06T01:36:33.892Z,155.33
2022-12-06T01:39:06.931Z,156.90
2022-12-06T01:41:35.236Z,152.47
2022-12-06T01:44:05.675Z,150.50
2022-12-06T01:46:35.470Z,152.93
2022-12-06T01:49:09.800Z,141.43
2022-12-06T01:51:38.018Z,151.20
2022-12-06T01:54:07.097Z,145.47
2022-12-06T01:56:35.292Z,141.00
2022-12-06T01:59:06.474Z,134.47
2022-12-06T02:01:34.751Z,132.30
2022-12-06T02:04:02.942Z,116.10
2022-12-06T02:06:31.418Z,125.63
2022-12-06T02:09:00.281Z,120.17
2022-12-06T02:11:34.928Z,118.67
2022-12-06T02:14:07.070Z,118.50
2022-12-06T02:16:49.543Z,113.50
2022-12-06T02:19:36.876Z,115.50
2022-12-06T02:22:07.832Z,114.77
2022-12-06T02:24:44.329Z,100.73
2022-12-06T02:27:27.800Z,106.83
2022-12-06T02:30:13.014Z,108.17
2022-12-06T02:32:53.214Z,112.07
2022-12-06T02:35:28.189Z,97.70
2022-12-06T02:37:58.725Z,97.27
2022-12-06T02:40:29.671Z,100.00
2022-12-06T02:42:59.585Z,105.13
2022-12-06T02:45:29.313Z,98.37
2022-12-06T02:47:59.472Z,98.43
2022-12-06T02:50:30.256Z,93.90
2022-12-06T02:52:58.349Z,104.70
2022-12-06T02:55:26.714Z,96.23
2022-12-06T02:57:56.997Z,99.70
2022-12-06T03:00:36.240Z,95.63
2022-12-06T03:03:14.922Z,90.10
2022-12-06T03:05:49.320Z,87.37
2022-12-06T03:08:21.812Z,85.33
2022-12-06T03:10:52.628Z,84.23
2022-12-06T03:13:24.386Z,91.47
2022-12-06T03:15:55.187Z,101.70
2022-12-06T03:18:26.457Z,83.97
2022-12-06T03:20:56.032Z,90.83
2022-12-06T03:23:26.291Z,94.27
2022-12-06T03:25:54.785Z,95.53
2022-12-06T03:28:23.161Z,98.43
2022-12-06T03:30:54.252Z,89.43
2022-12-06T03:33:25.320Z,90.13
2022-12-06T03:35:53.807Z,81.97
2022-12-06T03:38:28.074Z,78.97
2022-12-06T03:40:56.424Z,80.40
2022-12-06T03:43:24.742Z,79.77
2022-12-06T03:45:55.220Z,77.00
2022-12-06T03:48:27.735Z,70.87
2022-12-06T03:50:58.787Z,68.93
2022-12-06T03:53:27.046Z,68.97
2022-12-06T03:55:55.511Z,72.93
2022-12-06T03:58:23.600Z,70.07
2022-12-06T04:00:51.958Z,72.77
2022-12-06T04:03:20.250Z,76.20
2022-12-06T04:05:50.054Z,76.27
2022-12-06T04:08:18.184Z,77.10
2022-12-06T04:10:46.479Z,76.80
2022-12-06T04:13:19.567Z,77.47
2022-12-06T04:15:48.404Z,82.77
2022-12-06T04:18:16.053Z,72.77
2022-12-06T04:21:03.601Z,75.37
2022-12-06T04:23:35.109Z,82.43
2022-12-06T04:26:03.775Z,80.93
2022-12-06T04:28:49.274Z,84.30
2022-12-06T04:31:35.061Z,72.60
2022-12-06T04:34:20.895Z,82.27
2022-12-06T04:37:06.383Z,79.63
2022-12-06T04:39:35.889Z,78.87
2022-12-06T04:42:21.541Z,72.43
2022-12-06T04:44:49.991Z,68.13
2022-12-06T04:47:18.287Z,62.60
2022-12-06T04:49:46.339Z,76.53
2022-12-06T04:52:14.501Z,65.53
2022-12-06T04:54:44.139Z,67.90
2022-12-06T04:57:13.374Z,59.33
2022-12-06T04:59:42.180Z,55.50
2022-12-06T05:02:12.771Z,59.57
2022-12-06T05:04:41.014Z,66.10
2022-12-06T05:07:09.827Z,67.03
2022-12-06T05:09:38.316Z,60.13
2022-12-06T05:12:08.367Z,59.80
2022-12-06T05:14:36.916Z,62.60
2022-12-06T05:17:05.225Z,62.13
2022-12-06T05:19:33.393Z,58.27
2022-12-06T05:22:01.493Z,55.67
2022-12-06T05:24:29.577Z,55.97
2022-12-06T05:26:57.710Z,52.17
2022-12-06T05:29:27.173Z,51.40
2022-12-06T05:31:55.303Z,55.20
2022-12-06T05:34:24.929Z,50.87
2022-12-06T05:36:53.369Z,56.40
2022-12-06T05:39:21.841Z,55.90
2022-12-06T05:41:50.146Z,56.43
2022-12-06T05:44:18.462Z,61.33
2022-12-06T05:46:48.065Z,60.50
2022-12-06T05:49:16.644Z,58.03
2022-12-06T05:51:45.693Z,56.07
2022-12-06T05:54:13.793Z,58.20
2022-12-06T05:56:43.095Z,69.93
2022-12-06T05:59:11.383Z,54.27
2022-12-06T06:01:40.760Z,51.67
2022-12-06T06:04:10.364Z,61.20
2022-12-06T06:06:38.522Z,61.23
2022-12-06T06:09:06.661Z,58.33
2022-12-06T06:11:35.103Z,54.67
2022-12-06T06:14:03.420Z,54.10
2022-12-06T06:16:33.065Z,64.37
2022-12-06T06:19:01.845Z,68.03
2022-12-06T06:21:32.722Z,58.40
2022-12-06T06:24:02.003Z,62.70
2022-12-06T06:26:30.195Z,61.53
2022-12-06T06:28:58.699Z,57.23
2022-12-06T06:31:27.051Z,58.87
2022-12-06T06:33:55.329Z,63.33
2022-12-06T06:36:23.467Z,49.63
2022-12-06T06:38:53.261Z,49.70
2022-12-06T06:41:21.336Z,52.30
2022-12-06T06:43:49.455Z,48.50
2022-12-06T06:46:17.755Z,49.00
2022-12-06T06:48:46.308Z,56.30
2022-12-06T06:51:15.353Z,51.60
2022-12-06T06:53:43.481Z,46.33
2022-12-06T06:56:13.076Z,45.83
2022-12-06T06:58:41.379Z,54.23
2022-12-06T07:01:09.847Z,52.30
2022-12-06T07:03:38.376Z,46.90
2022-12-06T07:06:09.412Z,45.03
2022-12-06T07:08:38.087Z,41.20
2022-12-06T07:11:06.829Z,45.23
2022-12-06T07:13:37.586Z,42.50
2022-12-06T07:16:07.363Z,47.57
2022-12-06T07:18:35.575Z,46.37
2022-12-06T07:21:05.305Z,46.30
2022-12-06T07:23:33.907Z,42.47
2022-12-06T07:26:03.270Z,45.93
2022-12-06T07:28:31.552Z,38.47
2022-12-06T07:31:08.700Z,42.53
2022-12-06T07:33:36.887Z,42.37
2022-12-06T07:36:14.111Z,43.40
2022-12-06T07:38:42.959Z,41.17
2022-12-06T07:41:25.945Z,45.57
2022-12-06T07:44:12.910Z,44.23
2022-12-06T07:46:42.406Z,47.33
2022-12-06T07:49:11.877Z,42.67
2022-12-06T07:51:40.188Z,43.10
2022-12-06T07:54:08.316Z,45.03
2022-12-06T07:56:36.710Z,41.47
2022-12-06T07:59:04.818Z,47.10
2022-12-06T08:01:33.380Z,45.23
2022-12-06T08:04:03.186Z,46.83
2022-12-06T08:06:31.698Z,46.80
2022-12-06T08:08:59.906Z,46.43
2022-12-06T08:11:28.961Z,48.17
2022-12-06T08:13:57.544Z,47.93
2022-12-06T08:16:25.855Z,49.47
2022-12-06T08:18:54.069Z,53.17
2022-12-06T08:21:26.198Z,46.97
2022-12-06T08:23:55.181Z,55.00
2022-12-06T08:26:23.974Z,51.13
2022-12-06T08:28:52.436Z,50.57
2022-12-06T08:31:21.977Z,59.27
2022-12-06T08:33:50.500Z,56.13
2022-12-06T08:36:19.697Z,50.83
2022-12-06T08:38:49.281Z,45.80
2022-12-06T08:41:34.764Z,47.17
2022-12-06T08:44:03.138Z,46.90
2022-12-06T08:46:32.237Z,49.20
2022-12-06T08:49:00.343Z,48.73
2022-12-06T08:51:28.449Z,60.97
2022-12-06T08:53:58.322Z,55.50
2022-12-06T08:56:26.850Z,49.57
2022-12-06T08:58:55.184Z,48.27
2022-12-06T09:01:24.449Z,47.80
2022-12-06T09:03:52.558Z,46.57
2022-12-06T09:06:20.761Z,65.43
2022-12-06T09:08:48.857Z,57.90
2022-12-06T09:11:18.330Z,47.90
2022-12-06T09:13:46.436Z,41.73
2022-12-06T09:16:16.120Z,41.13
2022-12-06T09:18:44.441Z,40.83
2022-12-06T09:21:13.905Z,42.97
2022-12-06T09:23:41.982Z,42.33
2022-12-06T09:26:10.084Z,40.67
2022-12-06T09:28:40.253Z,52.40
2022-12-06T09:31:09.196Z,52.90
2022-12-06T09:33:37.830Z,52.97
2022-12-06T09:36:07.722Z,56.43
2022-12-06T09:38:36.413Z,62.47
2022-12-06T09:41:09.431Z,64.50
2022-12-06T09:43:46.848Z,59.73
2022-12-06T09:46:30.940Z,65.43
2022-12-06T09:49:11.664Z,76.70
2022-12-06T09:51:53.697Z,73.97
2022-12-06T09:54:33.840Z,73.50
2022-12-06T09:57:03.103Z,65.60
2022-12-06T09:59:37.775Z,72.20
2022-12-06T10:02:18.870Z,76.53
2022-12-06T10:04:58.641Z,70.33
2022-12-06T10:07:29.021Z,75.47
2022-12-06T10:10:03.970Z,73.20
2022-12-06T10:12:39.642Z,72.43
2022-12-06T10:15:17.271Z,69.53
2022-12-06T10:17:53.391Z,66.50
2022-12-06T10:20:24.418Z,62.20
2022-12-06T10:22:58.800Z,69.20
2022-12-06T10:25:28.043Z,54.40
2022-12-06T10:28:01.103Z,60.97
2022-12-06T10:30:30.728Z,52.93
2022-12-06T10:33:05.469Z,58.73
2022-12-06T10:35:42.366Z,37.73
2022-12-06T10:38:20.384Z,45.67
2022-12-06T10:40:53.110Z,42.00
2022-12-06T10:43:24.338Z,43.63
2022-12-06T10:46:26.975Z,38.00
2022-12-06T10:48:59.595Z,35.87
2022-12-06T10:51:33.398Z,41.60
2022-12-06T10:54:04.647Z,24.48
2022-12-06T10:56:34.120Z,37.67
2022-12-06T10:59:04.485Z,31.25
2022-12-06T11:01:36.003Z,26.75
2022-12-06T11:04:06.875Z,22.08
2022-12-06T11:06:35.845Z,35.40
2022-12-06T11:09:07.398Z,21.07
2022-12-06T11:11:36.582Z,36.07
2022-12-06T11:14:06.309Z,11.20
2022-12-06T11:16:39.109Z,19.17
2022-12-06T11:19:16.783Z,18.27
2022-12-06T11:21:46.982Z,15.33
2022-12-06T11:24:16.738Z,14.83
2022-12-06T11:26:46.188Z,13.47
2022-12-06T11:29:15.258Z,13.43
2022-12-06T11:31:45.648Z,23.90
2022-12-06T11:34:16.309Z,15.13
2022-12-06T11:36:44.406Z,16.03
2022-12-06T11:39:13.122Z,15.77
2022-12-06T11:41:41.234Z,11.47
2022-12-06T11:44:10.863Z,12.87
2022-12-06T11:46:38.984Z,13.37
2022-12-06T11:49:15.943Z,11.90
2022-12-06T11:51:44.187Z,12.13
2022-12-06T11:54:20.534Z,14.20
2022-12-06T11:56:48.611Z,15.90
2022-12-06T11:59:25.038Z,15.67
2022-12-06T12:01:54.182Z,18.77
2022-12-06T12:04:34.826Z,17.17
2022-12-06T12:07:05.788Z,16.53
2022-12-06T12:09:36.079Z,17.90
2022-12-06T12:12:06.043Z,17.00
2022-12-06T12:14:38.769Z,19.00
2022-12-06T12:17:13.474Z,17.00
2022-12-06T12:19:45.300Z,18.23
2022-12-06T12:22:22.494Z,18.33
2022-12-06T12:27:47.876Z,16.20
2022-12-06T12:30:28.264Z,18.73
2022-12-06T12:33:20.356Z,17.13
2022-12-06T12:35:51.205Z,19.40
2022-12-06T12:38:25.350Z,19.67
2022-12-06T12:40:54.700Z,19.07
2022-12-06T12:43:24.110Z,16.13
2022-12-06T12:46:18.263Z,18.80
2022-12-06T12:48:47.085Z,17.63
2022-12-06T12:51:25.551Z,21.17
2022-12-06T12:53:56.413Z,18.00
2022-12-06T12:56:24.743Z,15.57
2022-12-06T12:58:54.013Z,16.43
2022-12-06T13:01:29.892Z,24.23
2022-12-06T13:04:00.947Z,22.37
2022-12-06T13:06:32.951Z,19.83
2022-12-06T13:09:02.368Z,17.30
2022-12-06T13:11:30.424Z,22.13
2022-12-06T13:13:58.589Z,23.58
2022-12-06T13:16:33.685Z,23.70
2022-12-06T13:19:01.911Z,23.42
2022-12-06T13:21:33.340Z,21.80
2022-12-06T13:24:03.842Z,24.33
2022-12-06T13:26:33.398Z,23.23
2022-12-06T13:29:02.749Z,22.38
2022-12-06T13:31:33.239Z,25.42
2022-12-06T13:34:03.617Z,19.85
2022-12-06T13:36:34.925Z,14.50
2022-12-06T13:39:25.878Z,14.07
2022-12-06T13:42:13.300Z,16.03
2022-12-06T13:44:42.323Z,17.20
2022-12-06T13:47:39.033Z,14.13
2022-12-06T13:50:51.722Z,14.80
2022-12-06T13:53:21.370Z,11.73
2022-12-06T13:56:01.641Z,12.00
2022-12-06T13:58:53.194Z,13.13
2022-12-06T14:01:40.549Z,11.40
2022-12-06T14:07:00.188Z,12.03
2022-12-06T14:09:36.799Z,11.27
2022-12-06T14:12:09.271Z,12.37
2022-12-06T14:14:37.676Z,12.17
2022-12-06T14:17:06.824Z,12.33
2022-12-06T14:19:42.299Z,13.20
2022-12-06T14:22:22.153Z,15.00
2022-12-06T14:25:00.107Z,14.20
2022-12-06T14:27:29.375Z,12.63
2022-12-06T14:30:03.765Z,12.53
2022-12-06T14:32:34.015Z,11.50
2022-12-06T14:35:07.229Z,12.57
2022-12-06T14:37:36.638Z,12.60
2022-12-06T14:40:37.619Z,14.27
2022-12-06T14:43:04.963Z,14.47
2022-12-06T14:45:35.236Z,16.23
2022-12-06T14:48:04.752Z,17.53
2022-12-06T14:50:33.483Z,17.10
2022-12-06T14:53:04.084Z,17.97
2022-12-06T14:55:34.727Z,16.63
2022-12-06T14:58:03.775Z,17.73
2022-12-06T15:00:36.148Z,18.67
2022-12-06T15:03:25.654Z,23.67
2022-12-06T15:06:10.366Z,17.60
2022-12-06T15:08:39.069Z,18.80
2022-12-06T15:11:45.382Z,19.70
2022-12-06T15:14:15.946Z,14.50
2022-12-06T15:16:45.446Z,12.83
2022-12-06T15:19:15.312Z,12.73
2022-12-06T15:21:43.534Z,13.07
2022-12-06T15:24:18.909Z,11.37
2022-12-06T15:26:48.725Z,13.67
2022-12-06T15:29:16.919Z,13.20
2022-12-06T15:31:49.517Z,14.63
2022-12-06T15:34:23.486Z,13.23
2022-12-06T15:37:03.912Z,15.63
2022-12-06T15:39:40.104Z,13.23
2022-12-06T15:42:14.307Z,15.93
2022-12-06T15:44:48.600Z,14.53
2022-12-06T15:47:17.704Z,13.70
2022-12-06T15:49:45.916Z,14.07
2022-12-06T15:52:16.941Z,15.43
2022-12-06T15:54:45.246Z,15.57
2022-12-06T15:57:14.959Z,17.23
2022-12-06T15:59:43.199Z,18.20
2022-12-06T16:02:15.428Z,16.13
2022-12-06T16:04:44.222Z,13.63
2022-12-06T16:07:18.871Z,13.07
2022-12-06T16:09:47.395Z,13.90
2022-12-06T16:12:17.048Z,24.97
2022-12-06T16:14:45.433Z,16.70
2022-12-06T16:17:13.887Z,15.27
2022-12-06T16:19:59.789Z,16.03
2022-12-06T16:22:41.786Z,15.30
2022-12-06T16:25:10.369Z,17.27
2022-12-06T16:27:40.344Z,17.40
2022-12-06T16:30:09.809Z,19.97
2022-12-06T16:32:38.001Z,22.23
2022-12-06T16:35:06.908Z,22.10
2022-12-06T16:37:35.353Z,20.90
2022-12-06T16:40:03.587Z,22.67
2022-12-06T16:42:31.777Z,23.20
2022-12-06T16:45:01.806Z,23.77
2022-12-06T16:49:57.489Z,24.10
2022-12-06T16:52:26.879Z,22.03
2022-12-06T16:54:55.117Z,23.80
2022-12-06T16:57:23.231Z,23.70
2022-12-06T16:59:51.331Z,28.40
2022-12-06T17:02:28.794Z,26.20
2022-12-06T17:04:57.229Z,25.67
2022-12-06T17:07:26.152Z,27.90
2022-12-06T17:09:54.659Z,27.17
2022-12-06T17:12:22.935Z,31.57
2022-12-06T17:14:51.256Z,31.50
2022-12-06T17:17:21.653Z,30.33
2022-12-06T17:19:51.396Z,27.77
2022-12-06T17:22:21.482Z,24.83
2022-12-06T17:24:49.726Z,25.83
2022-12-06T17:27:19.113Z,25.70
2022-12-06T17:29:47.547Z,27.83
2022-12-06T17:32:15.985Z,27.97
2022-12-06T17:34:44.456Z,24.20
2022-12-06T17:37:14.090Z,22.67
2022-12-06T17:39:42.503Z,25.40
2022-12-06T17:42:28.595Z,24.30
2022-12-06T17:44:57.777Z,25.27
2022-12-06T17:47:27.191Z,21.73
2022-12-06T17:49:56.579Z,22.43
2022-12-06T17:52:26.293Z,22.83
2022-12-06T17:54:54.632Z,23.47
2022-12-06T17:57:22.838Z,22.97
2022-12-06T17:59:51.017Z,22.27
2022-12-06T18:02:20.137Z,23.50
2022-12-06T18:04:48.602Z,20.87
2022-12-06T18:07:17.019Z,22.03
2022-12-06T18:09:47.061Z,24.27
2022-12-06T18:12:16.287Z,23.83
2022-12-06T18:14:44.791Z,25.23
2022-12-06T18:17:13.396Z,23.40
2022-12-06T18:19:41.873Z,25.70
2022-12-06T18:22:10.942Z,26.90
2022-12-06T18:24:39.305Z,31.83
2022-12-06T18:27:09.173Z,38.00
2022-12-06T18:29:37.503Z,30.53
2022-12-06T18:32:06.272Z,22.20
2022-12-06T18:34:34.859Z,22.90
2022-12-06T18:37:03.251Z,21.07
2022-12-06T18:39:31.684Z,18.63
2022-12-06T18:41:59.854Z,17.73
2022-12-06T18:44:29.602Z,19.17
2022-12-06T18:46:57.810Z,19.43
2022-12-06T18:49:25.943Z,21.93
2022-12-06T18:51:54.131Z,19.70
2022-12-06T18:54:22.199Z,22.47
2022-12-06T18:56:50.463Z,23.57
2022-12-06T18:59:23.126Z,22.77
2022-12-06T19:01:55.566Z,24.07
2022-12-06T19:04:23.674Z,22.83
2022-12-06T19:06:51.826Z,22.57
2022-12-06T19:09:20.504Z,21.17
2022-12-06T19:11:49.405Z,22.23
2022-12-06T19:14:17.555Z,22.13
2022-12-06T19:16:46.526Z,22.17
2022-12-06T19:19:17.698Z,23.37
2022-12-06T19:21:46.705Z,24.27
2022-12-06T19:24:16.025Z,23.37
2022-12-06T19:26:44.178Z,23.97
2022-12-06T19:29:12.245Z,21.97
2022-12-06T19:31:40.415Z,22.80
2022-12-06T19:34:12.052Z,22.13
2022-12-06T19:36:42.776Z,21.90
2022-12-06T19:39:11.287Z,23.10
2022-12-06T19:41:59.387Z,23.20
2022-12-06T19:44:26.593Z,22.33
2022-12-06T19:46:54.720Z,23.50
2022-12-06T19:49:23.710Z,23.30
2022-12-06T19:51:53.461Z,22.57
2022-12-06T19:54:22.602Z,21.87
2022-12-06T19:56:50.819Z,22.17
2022-12-06T19:59:18.960Z,23.73
2022-12-06T20:01:48.246Z,24.67
2022-12-06T20:04:16.782Z,24.17
2022-12-06T20:06:44.953Z,27.00
2022-12-06T20:09:14.590Z,29.70
2022-12-06T20:12:00.099Z,29.37
2022-12-06T20:14:28.424Z,29.77
2022-12-06T20:16:56.537Z,29.13
2022-12-06T20:19:24.649Z,24.93
2022-12-06T20:21:52.870Z,23.80
2022-12-06T20:24:22.654Z,24.87
2022-12-06T20:26:51.585Z,25.80
2022-12-06T20:29:19.973Z,23.93
2022-12-06T20:31:49.141Z,24.40
2022-12-06T20:34:17.435Z,22.43
2022-12-06T20:36:45.613Z,23.17
2022-12-06T20:39:19.491Z,22.23
2022-12-06T20:41:49.234Z,20.87
2022-12-06T20:44:17.354Z,21.67
2022-12-06T20:46:45.696Z,23.60
2022-12-06T20:49:14.154Z,20.67
2022-12-06T20:51:42.507Z,22.33
2022-12-06T20:54:11.986Z,20.97
2022-12-06T20:56:40.378Z,19.50
2022-12-06T20:59:10.999Z,19.87
2022-12-06T21:01:40.057Z,19.60
2022-12-06T21:04:08.352Z,19.70
2022-12-06T21:06:36.712Z,20.13
2022-12-06T21:09:05.027Z,16.93
2022-12-06T21:11:33.168Z,19.23
2022-12-06T21:14:01.314Z,21.20
2022-12-06T21:16:31.531Z,21.90
2022-12-06T21:19:00.763Z,17.33
2022-12-06T21:21:29.853Z,15.13
2022-12-06T21:24:00.003Z,16.93
2022-12-06T21:26:28.200Z,17.10
2022-12-06T21:28:56.290Z,16.30
2022-12-06T21:31:27.518Z,17.53
2022-12-06T21:33:56.991Z,18.03
2022-12-06T21:36:25.290Z,18.47
2022-12-06T21:38:53.661Z,19.90
2022-12-06T21:41:22.076Z,16.53
2022-12-06T21:43:50.199Z,18.00
2022-12-06T21:46:19.806Z,18.47
2022-12-06T21:48:50.799Z,16.83
2022-12-06T21:51:20.262Z,18.73
2022-12-06T21:53:48.494Z,20.47
2022-12-06T21:56:18.216Z,20.80
2022-12-06T21:58:46.459Z,23.80
2022-12-06T22:01:15.814Z,21.97
2022-12-06T22:03:44.671Z,24.43
2022-12-06T22:06:13.679Z,22.30
2022-12-06T22:08:45.815Z,24.50
2022-12-06T22:11:14.842Z,23.00
2022-12-06T22:13:43.187Z,24.13
2022-12-06T22:16:11.888Z,24.40
2022-12-06T22:18:44.974Z,24.33
2022-12-06T22:21:15.349Z,25.60
2022-12-06T22:23:44.833Z,24.93
2022-12-06T22:26:14.642Z,25.13
2022-12-06T22:28:42.694Z,24.40
2022-12-06T22:31:15.327Z,23.97
2022-12-06T22:33:43.861Z,25.80
2022-12-06T22:36:12.045Z,23.10
2022-12-06T22:38:40.128Z,24.87
2022-12-06T22:41:09.857Z,24.00
2022-12-06T22:43:38.134Z,23.80
2022-12-06T22:46:06.712Z,23.23
2022-12-06T22:48:34.807Z,22.70
2022-12-06T22:51:13.212Z,23.40
2022-12-06T22:53:41.612Z,23.50
2022-12-06T22:56:11.176Z,21.67
2022-12-06T22:58:39.484Z,23.67
2022-12-06T23:01:16.252Z,22.37
2022-12-06T23:03:45.268Z,23.20
2022-12-06T23:06:13.547Z,23.70
2022-12-06T23:08:41.772Z,22.80
2022-12-06T23:11:12.559Z,21.37
2022-12-06T23:13:40.874Z,20.57
2022-12-06T23:16:11.806Z,19.87
2022-12-06T23:18:39.921Z,21.97
2022-12-06T23:21:09.063Z,20.57
2022-12-06T23:23:37.201Z,21.67
2022-12-06T23:26:06.070Z,20.77
2022-12-06T23:28:35.597Z,21.57
2022-12-06T23:31:04.703Z,20.50
2022-12-06T23:33:32.901Z,19.63
2022-12-06T23:36:05.566Z,21.50
2022-12-06T23:38:34.118Z,19.20
2022-12-06T23:41:06.050Z,19.80
2022-12-06T23:43:35.568Z,21.00
2022-12-06T23:46:07.397Z,20.03
2022-12-06T23:48:35.916Z,20.57
2022-12-06T23:51:04.731Z,19.60
2022-12-06T23:53:32.866Z,18.20
2022-12-06T23:56:00.966Z,17.80
2022-12-06T23:58:29.152Z,17.40
